Terminal Aerodrome Forecast
Issued by NWS Pittsburgh, PA

Current Version | Previous Version | Graphics & Text | Print | Product List | Glossary On
Versions: 1 2 3 4 5 6 7 8 9 10 11 12 13 14 15 16 17 18 19 20 21 22 23 24 25 26 27 28 29 30 31
000
FTUS41 KPBZ 121100
TAFPIT
TAF
KPIT 121132Z 1212/1318 02006KT P6SM -DZ SCT009 OVC015
      TEMPO 1212/1214 BKN009 OVC015
     FM121600 02007KT P6SM BKN025
     FM122200 02007KT P6SM SCT025 BKN200
     FM130100 04004KT P6SM BKN250
     FM130800 03003KT P6SM OVC040=

USA.gov is the U.S. government's official web portal to all federal, state and local government web resources and services.